This is the latest recevied weather packets stored in our database for station/object CE4TQY-10. If no packets are shown the sender has not sent any weather packets the latest 10 day(s).
| Time | Temp. | Humidity | Pressure | Rain* | Wind** | Luminosity | Snow |
|---|---|---|---|---|---|---|---|
| 1777489950 | 22.22° C | 47% | 1016.6 hPa | - | - | - | - |
| 1777489095 | 22.78° C | 47% | 1016.7 hPa | - | - | - | - |
| 1777489050 | 22.78° C | 47% | 1016.7 hPa | - | - | - | - |
| 1777488149 | 22.78° C | 46% | 1016.8 hPa | - | - | - | - |
| 1777487248 | 22.78° C | 47% | 1016.9 hPa | - | - | - | - |
| 1777486347 | 22.78° C | 45% | 1016.8 hPa | - | - | - | - |
| 1777485446 | 22.22° C | 45% | 1017.1 hPa | - | - | - | - |
| 1777484545 | 21.67° C | 49% | 1017.3 hPa | - | - | - | - |
| 1777483645 | 21.67° C | 47% | 1017.5 hPa | - | - | - | - |
| 1777482743 | 21.67° C | 50% | 1017.7 hPa | - | - | - | - |
| 1777481842 | 22.22° C | 50% | 1017.9 hPa | - | - | - | - |
| 1777480941 | 21.67° C | 51% | 1018 hPa | - | - | - | - |
| 1777480040 | 21.67° C | 51% | 1018.3 hPa | - | - | - | - |
| 1777479139 | 21.67° C | 50% | 1018.5 hPa | - | - | - | - |
| 1777478239 | 25° C | 44% | 1018.7 hPa | - | - | - | - |
| 1777477338 | 25.56° C | 44% | 1018.8 hPa | - | - | - | - |
| 1777476437 | 24.44° C | 46% | 1019 hPa | - | - | - | - |
| 1777475535 | 25° C | 46% | 1019.2 hPa | - | - | - | - |
| 1777474634 | 25.56° C | 44% | 1019.3 hPa | - | - | - | - |
| 1777473733 | 25° C | 45% | 1019.4 hPa | - | - | - | - |
| 1777472833 | 25.56° C | 46% | 1019.5 hPa | - | - | - | - |
| 1777471932 | 23.89° C | 49% | 1019.7 hPa | - | - | - | - |
| 1777471031 | 23.33° C | 50% | 1019.9 hPa | - | - | - | - |
| 1777470130 | 25° C | 48% | 1020.1 hPa | - | - | - | - |
| 1777469229 | 22.22° C | 52% | 1020 hPa | - | - | - | - |
* Rain since midnight (hover to see other rain measurements)
** Current wind speed in m/s (hover to see current wind gust speed)